Time;durP1;ratioP1;P1;durP2;ratioP2;P2;SDS_P1;SDS_P2;PMS_P1;PMS_P2;Temp;Humidity;BMP_temperature;BMP_pressure;BME280_temperature;BME280_humidity;BME280_pressure;Samples;Min_cycle;Max_cycle;Signal;HPM_P1;HPM_P2
2022/10/31 00:01:15;;;;;;;;;;;;;;;12.96;88.25;101198.70;1948528;74;20143;-54
2022/10/31 00:03:43;;;;;;;;;;;;;;;12.96;88.33;101201.34;1948657;74;20390;-55
2022/10/31 00:06:11;;;;;;;;;;;;;;;12.94;88.51;101191.30;1948574;74;20105;-55
2022/10/31 00:08:39;;;;;;;;;;;;;;;12.94;88.62;101192.14;1948538;74;20112;-55
2022/10/31 00:11:10;;;;;;;;;;;;;;;12.94;89.01;101187.33;1948540;74;20112;-55
2022/10/31 00:13:38;;;;;;;;;;;;;;;12.94;89.06;101188.66;1948453;74;20117;-53
2022/10/31 00:16:06;;;;;;;;;;;;;;;12.93;89.46;101189.59;1948727;74;20347;-55
2022/10/31 00:18:34;;;;;;;;;;;;;;;12.89;89.47;101186.22;1948544;74;20100;-54
2022/10/31 00:21:02;;;;;;;;;;;;;;;12.84;89.70;101175.44;1948510;74;20117;-55
2022/10/31 00:23:30;;;;;;;;;;;;;;;12.80;89.83;101164.58;1948558;74;20112;-54
2022/10/31 00:26:02;;;;;;;;;;;;;;;12.76;89.95;101153.27;1948475;74;20112;-55
2022/10/31 00:28:31;;;;;;;;;;;;;;;12.72;90.24;101153.86;1948111;74;20113;-56
2022/10/31 00:31:00;;;;;;;;;;;;;;;12.67;90.76;101151.89;1948455;74;20151;-54
2022/10/31 00:33:28;;;;;;;;;;;;;;;12.65;90.90;101150.22;1948536;74;20108;-53
2022/10/31 00:35:56;;;;;;;;;;;;;;;12.63;90.87;101146.78;1948452;74;20121;-55
2022/10/31 00:38:23;;;;;;;;;;;;;;;12.61;91.18;101129.67;1948506;74;20143;-55
2022/10/31 00:40:51;;;;;;;;;;;;;;;12.59;91.40;101121.42;1948544;74;20218;-54
2022/10/31 00:43:19;;;;;;;;;;;;;;;12.58;91.49;101115.28;1948520;74;20147;-55
2022/10/31 00:45:47;;;;;;;;;;;;;;;12.59;91.24;101116.98;1948526;74;20183;-55
2022/10/31 00:48:15;;;;;;;;;;;;;;;12.61;91.13;101109.86;1948450;74;20146;-55
2022/10/31 00:50:43;;;;;;;;;;;;;;;12.62;90.97;101108.95;1948478;74;20112;-54
2022/10/31 00:53:11;;;;;;;;;;;;;;;12.63;90.85;101108.48;1947579;74;20117;-61
2022/10/31 00:55:39;;;;;;;;;;;;;;;12.63;91.03;101108.48;1948518;74;20146;-57
2022/10/31 00:58:07;;;;;;;;;;;;;;;12.65;90.78;101117.20;1948544;74;20109;-59
2022/10/31 01:00:35;;;;;;;;;;;;;;;12.66;90.82;101112.32;1948500;74;20167;-57
2022/10/31 01:03:03;;;;;;;;;;;;;;;12.67;90.67;101112.27;1948630;74;20132;-57
2022/10/31 01:05:31;;;;;;;;;;;;;;;12.68;90.56;101111.32;1939626;74;20100;-57
2022/10/31 01:07:59;;;;;;;;;;;;;;;12.70;90.49;101113.44;1920587;75;20181;-57
2022/10/31 01:10:27;;;;;;;;;;;;;;;12.69;90.60;101110.88;1936672;74;20116;-58
2022/10/31 01:12:55;;;;;;;;;;;;;;;12.68;90.56;101106.04;1949177;73;20151;-56
2022/10/31 01:15:23;;;;;;;;;;;;;;;12.65;90.71;101102.66;1932236;73;20100;-57
2022/10/31 01:17:51;;;;;;;;;;;;;;;12.65;90.72;101106.19;1929914;73;20145;-57
2022/10/31 01:20:19;;;;;;;;;;;;;;;12.64;90.83;101104.45;1936384;73;20112;-57
2022/10/31 01:22:47;;;;;;;;;;;;;;;12.66;90.88;101107.04;1939903;73;20116;-57
2022/10/31 01:25:14;;;;;;;;;;;;;;;12.66;90.71;101109.68;1939684;74;20151;-57
2022/10/31 01:27:42;;;;;;;;;;;;;;;12.67;90.61;101112.27;1949197;73;20147;-57
2022/10/31 01:30:11;;;;;;;;;;;;;;;12.68;90.64;101113.11;1936379;73;20101;-56
2022/10/31 01:32:39;;;;;;;;;;;;;;;12.68;90.59;101107.36;1951982;73;20139;-60
2022/10/31 01:35:07;;;;;;;;;;;;;;;12.70;90.53;101101.55;1950572;73;20117;-58
2022/10/31 01:37:35;;;;;;;;;;;;;;;12.73;90.54;101095.29;1937707;74;20159;-58
2022/10/31 01:40:03;;;;;;;;;;;;;;;12.73;90.58;101093.50;1934878;73;20135;-59
2022/10/31 01:42:31;;;;;;;;;;;;;;;12.75;90.70;101095.61;1938083;73;20112;-54
2022/10/31 01:45:00;;;;;;;;;;;;;;;12.78;90.53;101100.36;1945938;74;20112;-56
2022/10/31 01:47:33;;;;;;;;;;;;;;;12.78;90.33;101103.89;1937878;73;20112;-56
2022/10/31 01:50:02;;;;;;;;;;;;;;;12.79;90.08;101100.30;1947738;74;20100;-54
2022/10/31 01:52:47;;;;;;;;;;;;;;;12.79;89.92;101094.17;1934574;73;20114;-53
2022/10/31 01:55:20;;;;;;;;;;;;;;;12.77;89.84;101104.80;1876806;71;20410;-53
2022/10/31 01:57:50;;;;;;;;;;;;;;;12.75;89.62;101104.86;1860624;76;20169;-53
2022/10/31 02:00:19;;;;;;;;;;;;;;;12.75;89.49;101094.76;1859901;76;20122;-54
2022/10/31 02:02:49;;;;;;;;;;;;;;;12.70;89.60;101080.41;1861756;76;20141;-56
2022/10/31 02:05:18;;;;;;;;;;;;;;;12.68;89.68;101087.55;1856348;76;20361;-54
2022/10/31 02:07:47;;;;;;;;;;;;;;;12.68;90.00;101081.41;1854718;77;20170;-54
2022/10/31 02:10:15;;;;;;;;;;;;;;;12.67;89.99;101084.96;1854703;77;20174;-56
2022/10/31 02:12:45;;;;;;;;;;;;;;;12.69;90.19;101083.14;1854722;77;20119;-57
2022/10/31 02:15:13;;;;;;;;;;;;;;;12.67;90.10;101085.84;1854691;77;20154;-56
2022/10/31 02:17:43;;;;;;;;;;;;;;;12.69;89.92;101091.07;1851616;76;20216;-56
2022/10/31 02:20:24;;;;;;;;;;;;;;;12.69;89.75;101094.56;1881855;76;20172;-55
2022/10/31 02:23:12;;;;;;;;;;;;;;;12.67;89.68;101093.77;1868648;76;20380;-56
2022/10/31 02:25:45;;;;;;;;;;;;;;;12.64;89.62;101090.39;1853451;77;20115;-54
2022/10/31 02:28:29;;;;;;;;;;;;;;;12.59;89.53;101086.61;1854677;77;20115;-56
2022/10/31 02:31:15;;;;;;;;;;;;;;;12.57;89.31;101095.06;1854648;77;20115;-57
2022/10/31 02:33:51;;;;;;;;;;;;;;;12.53;89.18;101090.37;1854731;77;20119;-55
2022/10/31 02:36:24;;;;;;;;;;;;;;;12.48;89.11;101083.56;1831602;77;20126;-55
2022/10/31 02:38:56;;;;;;;;;;;;;;;12.45;88.98;101083.67;1855290;76;20126;-57
2022/10/31 02:41:43;;;;;;;;;;;;;;;12.43;89.20;101084.20;1856235;76;20107;-57
2022/10/31 02:44:13;;;;;;;;;;;;;;;12.42;89.65;101088.64;1855344;77;20122;-56
2022/10/31 02:46:45;;;;;;;;;;;;;;;12.44;89.80;101085.94;1862607;76;20223;-55
2022/10/31 02:49:16;;;;;;;;;;;;;;;12.47;89.72;101096.39;1861199;76;20137;-55
2022/10/31 02:51:51;;;;;;;;;;;;;;;12.50;89.54;101093.59;1869951;76;20687;-58
2022/10/31 02:54:20;;;;;;;;;;;;;;;12.52;89.49;101097.03;1854477;77;20153;-55
2022/10/31 02:56:52;;;;;;;;;;;;;;;12.55;89.42;101096.91;1857011;77;20197;-57
2022/10/31 02:59:20;;;;;;;;;;;;;;;12.60;89.29;101096.27;1858149;77;20397;-56
2022/10/31 03:01:59;;;;;;;;;;;;;;;12.65;89.17;101095.63;1858012;77;20141;-56
2022/10/31 03:04:52;;;;;;;;;;;;;;;12.65;89.10;101090.34;1912632;75;20269;-56
2022/10/31 03:07:38;;;;;;;;;;;;;;;12.66;89.16;101099.97;1919156;75;20123;-54
2022/10/31 03:10:11;;;;;;;;;;;;;;;12.65;89.19;101091.66;1883922;75;20128;-56
2022/10/31 03:12:40;;;;;;;;;;;;;;;12.61;89.12;101083.44;1917218;75;20388;-55
2022/10/31 03:15:22;;;;;;;;;;;;;;;12.52;89.09;101066.66;1919201;75;20125;-53
2022/10/31 03:18:00;;;;;;;;;;;;;;;12.43;89.06;101073.20;1919388;75;20171;-53
2022/10/31 03:20:32;;;;;;;;;;;;;;;12.35;89.28;101075.28;1919368;75;20141;-53
2022/10/31 03:23:01;;;;;;;;;;;;;;;12.27;89.59;101070.33;1918046;75;20257;-53
2022/10/31 03:25:30;;;;;;;;;;;;;;;12.20;89.46;101060.08;1919403;75;20129;-52
2022/10/31 03:27:58;;;;;;;;;;;;;;;12.12;89.36;101052.48;1919467;75;20133;-53
2022/10/31 03:30:26;;;;;;;;;;;;;;;12.06;89.42;101055.34;1919094;75;20103;-53
2022/10/31 03:32:57;;;;;;;;;;;;;;;12.04;89.73;101053.23;1918338;75;20141;-53
2022/10/31 03:35:26;;;;;;;;;;;;;;;12.02;89.69;101052.44;1918348;75;20168;-48
2022/10/31 03:37:56;;;;;;;;;;;;;;;11.98;89.65;101049.91;1919113;75;20109;-49
2022/10/31 03:40:25;;;;;;;;;;;;;;;11.92;89.60;101047.52;1913666;75;20182;-50
2022/10/31 03:42:54;;;;;;;;;;;;;;;11.90;89.51;101041.45;1919156;75;20192;-50
2022/10/31 03:45:24;;;;;;;;;;;;;;;11.88;89.40;101045.05;1909954;75;20148;-49
2022/10/31 03:47:53;;;;;;;;;;;;;;;11.87;89.56;101041.53;1906137;75;20099;-50
2022/10/31 03:50:22;;;;;;;;;;;;;;;11.87;89.79;101045.48;1906038;75;20146;-47
2022/10/31 03:52:52;;;;;;;;;;;;;;;11.91;89.73;101047.58;1906203;75;20201;-47
2022/10/31 03:55:21;;;;;;;;;;;;;;;11.90;89.57;101038.81;1910198;75;20138;-49
2022/10/31 03:58:02;;;;;;;;;;;;;;;11.89;89.57;101038.37;1919054;75;20172;-51
2022/10/31 04:00:32;;;;;;;;;;;;;;;11.89;89.57;101029.60;1918462;75;20137;-51
2022/10/31 04:03:02;;;;;;;;;;;;;;;11.90;89.61;101024.30;1920067;74;20172;-48
2022/10/31 04:05:32;;;;;;;;;;;;;;;11.92;89.63;101021.61;1927765;73;20141;-50
2022/10/31 04:08:02;;;;;;;;;;;;;;;11.95;89.63;101021.02;1926403;74;20415;-50
2022/10/31 04:10:33;;;;;;;;;;;;;;;11.98;89.68;101031.44;1926888;74;20258;-49
2022/10/31 04:13:05;;;;;;;;;;;;;;;12.01;89.68;101029.59;1928937;74;20145;-54
2022/10/31 04:15:39;;;;;;;;;;;;;;;12.03;89.51;101030.41;1927439;74;20119;-55
2022/10/31 04:18:07;;;;;;;;;;;;;;;12.05;89.81;101040.45;1896070;76;20126;-52
2022/10/31 04:20:38;;;;;;;;;;;;;;;12.08;89.69;101042.94;1896005;76;20138;-51
2022/10/31 04:23:08;;;;;;;;;;;;;;;12.07;89.36;101045.20;1896088;76;20384;-50
2022/10/31 04:25:35;;;;;;;;;;;;;;;12.06;89.25;101046.11;1895527;75;20118;-47
2022/10/31 04:28:03;;;;;;;;;;;;;;;12.05;89.21;101043.09;1922918;74;20210;-50
2022/10/31 04:30:31;;;;;;;;;;;;;;;12.07;89.16;101035.95;1926336;74;20112;-49
2022/10/31 04:32:59;;;;;;;;;;;;;;;12.06;89.22;101042.14;1926341;74;20148;-52
2022/10/31 04:35:27;;;;;;;;;;;;;;;12.04;89.25;101040.03;1926445;74;20112;-50
2022/10/31 04:37:55;;;;;;;;;;;;;;;12.04;89.26;101041.35;1928547;74;20104;-50
2022/10/31 04:40:23;;;;;;;;;;;;;;;12.08;89.22;101044.26;1927365;74;20104;-52
2022/10/31 04:43:09;;;;;;;;;;;;;;;12.09;89.14;101034.11;1926377;74;20113;-51
2022/10/31 04:45:38;;;;;;;;;;;;;;;12.07;89.07;101043.87;1926377;74;20112;-51
2022/10/31 04:48:06;;;;;;;;;;;;;;;12.06;89.19;101038.19;1927716;74;20113;-48
2022/10/31 04:50:35;;;;;;;;;;;;;;;12.14;89.25;101028.20;1929023;74;20160;-51
2022/10/31 04:53:02;;;;;;;;;;;;;;;12.23;89.40;101029.58;1929236;74;20269;-51
2022/10/31 04:55:32;;;;;;;;;;;;;;;12.36;89.34;101035.62;1928983;74;20132;-48
2022/10/31 04:58:07;;;;;;;;;;;;;;;12.52;89.12;101042.88;1921446;74;20115;-51
2022/10/31 05:00:35;;;;;;;;;;;;;;;12.62;89.02;101034.98;1928983;74;20108;-51
2022/10/31 05:03:03;;;;;;;;;;;;;;;12.69;88.78;101031.16;1928994;74;20610;-51
2022/10/31 05:05:33;;;;;;;;;;;;;;;12.75;88.60;101026.91;1929050;74;20183;-48
2022/10/31 05:08:02;;;;;;;;;;;;;;;12.81;88.58;101036.83;1928947;74;20167;-52
2022/10/31 05:10:31;;;;;;;;;;;;;;;12.91;88.67;101032.84;1929104;74;20366;-51
2022/10/31 05:13:01;;;;;;;;;;;;;;;13.02;88.58;101035.01;1929142;74;20585;-51
2022/10/31 05:15:37;;;;;;;;;;;;;;;13.16;88.54;101026.47;1928970;74;20175;-51
2022/10/31 05:18:23;;;;;;;;;;;;;;;13.29;88.18;101032.91;1928997;74;20386;-51
2022/10/31 05:20:52;;;;;;;;;;;;;;;13.43;87.77;101037.62;1926297;74;20100;-51
2022/10/31 05:23:31;;;;;;;;;;;;;;;13.47;87.43;101038.71;1922426;74;20115;-51
2022/10/31 05:26:00;;;;;;;;;;;;;;;13.53;87.17;101040.69;1929152;74;20138;-51
2022/10/31 05:28:28;;;;;;;;;;;;;;;13.76;86.76;101037.82;1929012;74;20100;-52
2022/10/31 05:30:56;;;;;;;;;;;;;;;14.03;85.87;101042.70;1929064;74;20108;-52
2022/10/31 05:33:24;;;;;;;;;;;;;;;14.52;84.84;101048.22;1928923;74;20104;-54
2022/10/31 05:36:06;;;;;;;;;;;;;;;15.01;83.58;101043.08;1858300;74;20151;-52
2022/10/31 05:38:35;;;;;;;;;;;;;;;15.49;83.42;101050.26;1929001;74;20190;-52
2022/10/31 05:41:05;;;;;;;;;;;;;;;15.75;82.35;101036.45;1929676;74;20139;-55
2022/10/31 05:43:33;;;;;;;;;;;;;;;16.04;80.70;101027.28;1929072;74;20116;-55
2022/10/31 05:46:02;;;;;;;;;;;;;;;16.37;79.43;101032.44;1929053;74;20112;-53
2022/10/31 05:48:41;;;;;;;;;;;;;;;16.49;78.42;101029.55;1925133;74;20123;-54
2022/10/31 05:51:10;;;;;;;;;;;;;;;16.98;78.12;101027.09;1926347;74;20142;-55
2022/10/31 05:53:38;;;;;;;;;;;;;;;17.51;76.30;101034.02;1929022;74;20112;-55
2022/10/31 05:56:06;;;;;;;;;;;;;;;17.97;74.82;101035.55;1929023;74;20120;-58
2022/10/31 05:58:34;;;;;;;;;;;;;;;18.68;73.60;101014.33;1929049;74;20138;-58
2022/10/31 06:01:05;;;;;;;;;;;;;;;19.27;71.01;101026.69;1929006;74;20116;-58
2022/10/31 06:03:33;;;;;;;;;;;;;;;19.35;70.57;101022.13;1929004;74;20108;-58
2022/10/31 06:06:03;;;;;;;;;;;;;;;19.15;70.25;101027.55;1929161;73;20253;-55
2022/10/31 06:08:35;;;;;;;;;;;;;;;18.77;69.40;101020.36;1928362;74;20171;-52
2022/10/31 06:11:04;;;;;;;;;;;;;;;18.68;69.90;101026.33;1928910;74;20151;-52
2022/10/31 06:13:50;;;;;;;;;;;;;;;18.73;69.32;101029.55;1928984;74;20145;-55
2022/10/31 06:16:26;;;;;;;;;;;;;;;18.77;68.43;101016.36;1929368;74;20137;-55
2022/10/31 06:18:55;;;;;;;;;;;;;;;18.89;67.21;101028.05;1928998;74;20156;-55
2022/10/31 06:21:23;;;;;;;;;;;;;;;19.18;66.55;101026.47;1928954;74;20153;-53
2022/10/31 06:23:51;;;;;;;;;;;;;;;19.52;65.37;101026.26;1929054;74;20112;-54
2022/10/31 06:26:27;;;;;;;;;;;;;;;19.46;64.07;101030.72;1930369;74;20404;-54
2022/10/31 06:28:55;;;;;;;;;;;;;;;19.24;64.57;101040.73;1929191;74;20100;-54
2022/10/31 06:31:27;;;;;;;;;;;;;;;18.73;64.33;101038.03;1930103;73;20131;-54
2022/10/31 06:33:56;;;;;;;;;;;;;;;18.44;64.69;101039.06;1926742;74;20183;-54
2022/10/31 06:36:24;;;;;;;;;;;;;;;18.85;63.91;101031.41;1927091;74;20104;-54
2022/10/31 06:38:53;;;;;;;;;;;;;;;19.82;61.73;101017.00;1929053;74;20113;-54
2022/10/31 06:41:23;;;;;;;;;;;;;;;20.82;60.43;101030.41;1928823;74;20124;-54
2022/10/31 06:43:51;;;;;;;;;;;;;;;21.62;58.88;101031.78;1928951;74;20100;-54
2022/10/31 06:46:29;;;;;;;;;;;;;;;21.88;58.66;101027.81;1930222;74;20123;-54
2022/10/31 06:48:59;;;;;;;;;;;;;;;22.21;53.88;101021.97;1929621;74;20171;-54
2022/10/31 06:51:31;;;;;;;;;;;;;;;22.15;54.02;101023.80;1929214;74;20197;-54
2022/10/31 06:53:59;;;;;;;;;;;;;;;22.65;54.54;101033.95;1929000;74;20116;-54
2022/10/31 06:56:27;;;;;;;;;;;;;;;23.13;54.72;101030.24;1928991;74;20139;-54
2022/10/31 06:58:56;;;;;;;;;;;;;;;24.09;54.13;101028.47;1929104;74;20418;-52
2022/10/31 07:01:28;;;;;;;;;;;;;;;24.56;51.28;101029.95;1930611;74;20140;-52
2022/10/31 07:03:56;;;;;;;;;;;;;;;24.91;50.98;101031.14;1928773;74;20117;-52
2022/10/31 07:06:24;;;;;;;;;;;;;;;25.18;50.46;101036.24;1928855;74;20159;-54
2022/10/31 07:08:52;;;;;;;;;;;;;;;25.59;50.01;101031.38;1927770;74;20112;-54
2022/10/31 07:11:20;;;;;;;;;;;;;;;25.78;49.00;101040.72;1928961;74;20120;-52
2022/10/31 07:13:49;;;;;;;;;;;;;;;25.89;47.93;101026.14;1928976;74;20424;-52
2022/10/31 07:16:16;;;;;;;;;;;;;;;24.40;48.33;101037.72;1928997;74;20116;-54
2022/10/31 07:18:45;;;;;;;;;;;;;;;24.02;49.08;101030.86;1928757;74;20113;-53
2022/10/31 07:21:14;;;;;;;;;;;;;;;23.98;47.58;101031.30;1928800;74;20142;-52
2022/10/31 07:23:42;;;;;;;;;;;;;;;24.39;48.62;101025.27;1929158;74;20153;-51
2022/10/31 07:26:15;;;;;;;;;;;;;;;24.22;48.12;101027.69;1926543;74;20414;-53
2022/10/31 07:28:47;;;;;;;;;;;;;;;24.41;48.21;101020.59;1928631;74;20148;-54
2022/10/31 07:31:15;;;;;;;;;;;;;;;24.05;47.68;101025.68;1929038;74;20148;-55
2022/10/31 07:33:43;;;;;;;;;;;;;;;24.91;46.53;101026.27;1929010;74;20112;-55
2022/10/31 07:36:30;;;;;;;;;;;;;;;25.62;44.80;101025.70;1929076;74;20142;-54
2022/10/31 07:39:02;;;;;;;;;;;;;;;25.98;43.37;101022.55;1928738;74;20119;-49
2022/10/31 07:41:30;;;;;;;;;;;;;;;26.31;41.91;101009.87;1926478;74;20113;-54
2022/10/31 07:43:58;;;;;;;;;;;;;;;26.43;40.19;101005.05;1926320;74;20178;-55
2022/10/31 07:46:44;;;;;;;;;;;;;;;26.36;38.73;101001.64;1926496;74;20116;-53
2022/10/31 07:49:30;;;;;;;;;;;;;;;26.58;38.08;101005.69;1926429;74;20382;-55
2022/10/31 07:51:59;;;;;;;;;;;;;;;25.24;39.12;101004.69;1926190;73;20178;-54
2022/10/31 07:54:31;;;;;;;;;;;;;;;25.09;39.24;100994.86;1897838;75;20106;-55
2022/10/31 07:56:59;;;;;;;;;;;;;;;24.36;39.28;100995.95;1896052;76;20118;-55
2022/10/31 07:59:27;;;;;;;;;;;;;;;24.40;40.72;101010.33;1896024;76;20115;-55
2022/10/31 08:01:55;;;;;;;;;;;;;;;24.38;41.08;101008.28;1924942;74;20171;-54
2022/10/31 08:04:33;;;;;;;;;;;;;;;24.48;39.70;101009.61;1928850;74;20418;-57
2022/10/31 08:07:19;;;;;;;;;;;;;;;24.60;40.29;101013.01;1907281;74;20125;-55
2022/10/31 08:09:49;;;;;;;;;;;;;;;24.04;40.69;101002.48;1906235;74;20192;-55
2022/10/31 08:12:22;;;;;;;;;;;;;;;24.17;40.03;101001.70;1906980;74;20165;-56
2022/10/31 08:14:50;;;;;;;;;;;;;;;24.08;41.21;101003.89;1906673;75;20147;-55
2022/10/31 08:17:19;;;;;;;;;;;;;;;25.16;40.09;101001.36;1906611;75;20109;-56
2022/10/31 08:19:51;;;;;;;;;;;;;;;26.44;39.69;101003.55;1907032;74;20149;-51
2022/10/31 08:22:21;;;;;;;;;;;;;;;27.01;38.23;100995.52;1910106;75;20140;-51
2022/10/31 08:24:49;;;;;;;;;;;;;;;26.77;39.13;100994.36;1910223;75;20136;-50
2022/10/31 08:27:17;;;;;;;;;;;;;;;26.66;38.34;100990.58;1910209;75;20109;-51
2022/10/31 08:29:46;;;;;;;;;;;;;;;26.46;39.64;100986.69;1909989;75;20164;-50
2022/10/31 08:32:14;;;;;;;;;;;;;;;25.08;38.96;100989.11;1906846;75;20135;-48
2022/10/31 08:35:01;;;;;;;;;;;;;;;23.78;41.10;100994.92;1906590;74;20149;-50
2022/10/31 08:37:49;;;;;;;;;;;;;;;22.69;42.33;100989.29;1906639;75;20136;-52
2022/10/31 08:40:17;;;;;;;;;;;;;;;21.62;43.38;100998.29;1906570;74;20212;-55
2022/10/31 08:42:45;;;;;;;;;;;;;;;20.99;43.86;100994.78;1906703;75;20104;-55
2022/10/31 08:45:12;;;;;;;;;;;;;;;20.40;44.94;100993.92;1906703;75;20117;-55
2022/10/31 08:47:41;;;;;;;;;;;;;;;19.92;45.66;100997.13;1906738;75;20136;-55
2022/10/31 08:50:09;;;;;;;;;;;;;;;20.08;45.48;100991.50;1906709;74;20117;-55
2022/10/31 08:52:37;;;;;;;;;;;;;;;20.80;44.73;100992.22;1908251;75;20116;-55
2022/10/31 08:55:05;;;;;;;;;;;;;;;22.16;42.99;100989.31;1910152;75;20125;-55
2022/10/31 08:57:35;;;;;;;;;;;;;;;23.99;39.83;100992.64;1905419;75;20124;-58
2022/10/31 09:00:04;;;;;;;;;;;;;;;24.95;38.24;100982.71;1910157;75;20112;-58
2022/10/31 09:02:48;;;;;;;;;;;;;;;25.49;37.37;100984.75;1908438;74;20133;-58
2022/10/31 09:05:16;;;;;;;;;;;;;;;26.18;36.94;100986.81;1906729;75;20274;-52
2022/10/31 09:07:44;;;;;;;;;;;;;;;26.72;35.94;100979.13;1906809;75;20105;-53
2022/10/31 09:10:12;;;;;;;;;;;;;;;27.31;35.03;100980.11;1906582;75;20121;-46
2022/10/31 09:12:41;;;;;;;;;;;;;;;27.97;34.06;100968.63;1906733;75;20117;-55
2022/10/31 09:15:25;;;;;;;;;;;;;;;28.19;33.99;100969.81;1906571;74;20271;-58
2022/10/31 09:17:55;;;;;;;;;;;;;;;27.91;32.96;100963.39;1907363;74;20142;-55
2022/10/31 09:20:32;;;;;;;;;;;;;;;27.98;32.70;100960.34;1907467;74;20171;-56
2022/10/31 09:23:01;;;;;;;;;;;;;;;28.20;33.68;100974.20;1906774;75;20117;-56
2022/10/31 09:25:30;;;;;;;;;;;;;;;28.61;33.47;100966.91;1905970;74;20105;-56
2022/10/31 09:28:09;;;;;;;;;;;;;;;28.86;32.67;100963.61;1872447;74;20164;-55
2022/10/31 09:30:38;;;;;;;;;;;;;;;28.86;33.38;100956.84;1906522;75;20105;-56
2022/10/31 09:33:08;;;;;;;;;;;;;;;27.69;35.25;100951.33;1906780;75;20172;-49
2022/10/31 09:35:36;;;;;;;;;;;;;;;27.26;35.71;100955.45;1906602;75;20160;-55
2022/10/31 09:38:05;;;;;;;;;;;;;;;27.41;35.22;100949.39;1906683;75;20105;-55
2022/10/31 09:40:35;;;;;;;;;;;;;;;27.46;34.92;100953.31;1906525;75;20109;-55
2022/10/31 09:43:07;;;;;;;;;;;;;;;27.91;33.83;100946.63;1906627;75;20122;-55
2022/10/31 09:45:43;;;;;;;;;;;;;;;28.70;33.10;100944.72;1906451;74;20114;-51
2022/10/31 09:48:16;;;;;;;;;;;;;;;28.41;33.59;100935.27;1905586;74;20133;-54
2022/10/31 09:50:59;;;;;;;;;;;;;;;28.49;32.92;100935.23;1798610;76;20119;-56
2022/10/31 09:53:36;;;;;;;;;;;;;;;28.85;32.02;100933.48;1874487;76;20111;-55
2022/10/31 09:56:06;;;;;;;;;;;;;;;28.73;31.78;100932.16;1874535;76;20115;-56
2022/10/31 09:58:35;;;;;;;;;;;;;;;29.12;31.67;100939.45;1893607;76;20146;-56
2022/10/31 10:01:05;;;;;;;;;;;;;;;29.14;30.38;100929.34;1893030;75;20113;-57
2022/10/31 10:03:40;;;;;;;;;;;;;;;28.56;30.90;100934.59;1906490;75;20941;-55
2022/10/31 10:06:11;;;;;;;;;;;;;;;28.14;31.77;100931.58;1906345;74;20154;-56
2022/10/31 10:08:40;;;;;;;;;;;;;;;28.26;31.41;100931.06;1926406;74;20139;-55
2022/10/31 10:11:30;;;;;;;;;;;;;;;28.30;31.39;100929.69;1927182;74;20144;-55
2022/10/31 10:14:11;;;;;;;;;;;;;;;28.39;31.43;100938.66;1927890;74;20179;-55
2022/10/31 10:16:43;;;;;;;;;;;;;;;27.58;31.79;100925.44;1928661;74;20097;-55
2022/10/31 10:19:29;;;;;;;;;;;;;;;26.93;32.73;100936.88;1928455;74;20113;-56
2022/10/31 10:22:07;;;;;;;;;;;;;;;26.36;32.10;100917.12;1929038;74;20195;-56
2022/10/31 10:24:39;;;;;;;;;;;;;;;25.66;34.10;100934.06;1929019;74;20453;-56
2022/10/31 10:27:09;;;;;;;;;;;;;;;25.17;33.96;100937.53;1929013;74;20117;-55
2022/10/31 10:29:44;;;;;;;;;;;;;;;25.15;34.05;100930.94;1928426;74;20186;-55
2022/10/31 10:32:13;;;;;;;;;;;;;;;25.26;34.13;100932.62;1928947;74;20146;-55
2022/10/31 10:34:42;;;;;;;;;;;;;;;24.40;34.48;100926.03;1928235;74;20147;-57
2022/10/31 10:37:11;;;;;;;;;;;;;;;23.88;34.77;100902.19;1928970;74;20112;-57
2022/10/31 10:39:40;;;;;;;;;;;;;;;24.33;34.17;100915.50;1928485;74;20116;-55
2022/10/31 10:47:42;;;;;;;;;;;;;;;25.35;32.39;100895.84;1929072;74;20146;-56
2022/10/31 10:50:14;;;;;;;;;;;;;;;25.29;32.89;100910.77;1928382;74;20186;-56
2022/10/31 10:52:44;;;;;;;;;;;;;;;24.32;33.84;100904.40;1929127;74;20112;-51
2022/10/31 10:55:17;;;;;;;;;;;;;;;23.76;34.42;100897.44;1927558;74;20104;-51
2022/10/31 10:58:04;;;;;;;;;;;;;;;23.57;35.13;100903.66;1928995;74;20100;-56
2022/10/31 11:00:34;;;;;;;;;;;;;;;23.37;35.03;100878.61;1929044;74;20113;-57
2022/10/31 11:03:02;;;;;;;;;;;;;;;23.66;35.08;100896.10;1929076;74;20112;-57
2022/10/31 11:05:44;;;;;;;;;;;;;;;23.25;35.76;100898.52;1929024;74;20112;-57
2022/10/31 11:08:14;;;;;;;;;;;;;;;23.63;35.62;100890.16;1929033;74;20118;-58
2022/10/31 11:10:42;;;;;;;;;;;;;;;23.67;35.11;100888.88;1928040;74;20120;-58
2022/10/31 11:13:17;;;;;;;;;;;;;;;23.63;35.21;100887.47;1929031;74;20378;-58
2022/10/31 11:15:52;;;;;;;;;;;;;;;23.72;35.31;100882.59;1928979;74;20109;-58
2022/10/31 11:18:22;;;;;;;;;;;;;;;23.12;35.62;100882.16;1913164;74;20145;-58
2022/10/31 11:20:51;;;;;;;;;;;;;;;21.77;37.43;100893.34;1903159;74;20203;-55
2022/10/31 11:23:20;;;;;;;;;;;;;;;21.12;38.82;100892.43;1919564;74;20121;-57
2022/10/31 11:25:52;;;;;;;;;;;;;;;20.88;39.56;100907.77;1916720;74;20411;-58
2022/10/31 11:28:19;;;;;;;;;;;;;;;20.71;39.88;100898.41;1922681;74;20131;-58
2022/10/31 11:30:49;;;;;;;;;;;;;;;20.31;40.50;100897.02;1929033;74;20163;-55
2022/10/31 11:33:30;;;;;;;;;;;;;;;19.91;41.26;100898.74;1917952;74;20228;-56
2022/10/31 11:35:59;;;;;;;;;;;;;;;19.53;41.93;100879.76;1922815;74;20134;-57
2022/10/31 11:38:31;;;;;;;;;;;;;;;19.13;42.85;100892.03;1929070;74;20171;-54
2022/10/31 11:41:00;;;;;;;;;;;;;;;18.90;43.50;100893.21;1927433;74;20108;-56
2022/10/31 11:43:28;;;;;;;;;;;;;;;18.80;43.90;100894.78;1919056;74;20249;-57
2022/10/31 11:45:57;;;;;;;;;;;;;;;18.60;44.55;100896.19;1910531;74;20155;-59
2022/10/31 11:48:25;;;;;;;;;;;;;;;18.43;44.92;100897.38;1918251;74;20106;-58
2022/10/31 11:50:57;;;;;;;;;;;;;;;18.27;45.68;100890.06;1919779;74;20120;-57
2022/10/31 11:53:27;;;;;;;;;;;;;;;18.13;45.93;100886.55;1929108;74;20382;-57
2022/10/31 11:56:14;;;;;;;;;;;;;;;18.01;46.60;100887.86;1928619;74;20144;-57
2022/10/31 11:58:42;;;;;;;;;;;;;;;17.78;46.74;100904.02;1928987;74;20116;-57
2022/10/31 12:01:27;;;;;;;;;;;;;;;17.68;47.14;100890.47;1928992;74;20112;-57
2022/10/31 12:04:02;;;;;;;;;;;;;;;17.56;47.45;100893.47;1908982;74;20145;-57
2022/10/31 12:06:31;;;;;;;;;;;;;;;17.51;48.05;100896.42;1925502;74;20106;-57
2022/10/31 12:08:58;;;;;;;;;;;;;;;17.50;48.16;100895.19;1901266;74;20109;-56
2022/10/31 12:11:43;;;;;;;;;;;;;;;17.58;48.44;100896.88;1877704;75;20147;-56
2022/10/31 12:14:18;;;;;;;;;;;;;;;17.58;48.36;100884.91;1886325;74;20123;-57
2022/10/31 12:16:47;;;;;;;;;;;;;;;17.55;48.88;100895.75;1872664;76;20175;-57
2022/10/31 12:19:33;;;;;;;;;;;;;;;17.49;49.10;100894.34;1898812;75;20121;-60
2022/10/31 12:22:09;;;;;;;;;;;;;;;17.48;49.18;100905.93;1899874;74;20105;-54
2022/10/31 12:24:44;;;;;;;;;;;;;;;17.42;49.67;100897.02;1905426;75;20252;-57
2022/10/31 12:27:20;;;;;;;;;;;;;;;17.32;50.15;100904.77;1893259;75;20146;-58
2022/10/31 12:29:52;;;;;;;;;;;;;;;17.26;50.18;100900.30;1893610;75;20202;-56
2022/10/31 12:32:31;;;;;;;;;;;;;;;17.18;50.20;100908.78;1905501;75;20109;-57
2022/10/31 12:35:09;;;;;;;;;;;;;;;17.13;50.28;100904.23;1906224;75;20105;-52
2022/10/31 12:37:41;;;;;;;;;;;;;;;17.07;50.55;100908.63;1895173;75;20164;-56
2022/10/31 12:40:27;;;;;;;;;;;;;;;17.03;50.59;100917.27;1906498;74;20149;-55
2022/10/31 12:42:56;;;;;;;;;;;;;;;17.00;50.40;100916.61;1906667;75;20113;-56
2022/10/31 12:45:42;;;;;;;;;;;;;;;17.05;50.52;100927.33;1905571;74;20117;-56
2022/10/31 12:48:20;;;;;;;;;;;;;;;17.13;50.47;100924.18;1906622;75;20110;-56
2022/10/31 12:50:50;;;;;;;;;;;;;;;17.17;50.39;100931.01;1906029;74;20180;-56
2022/10/31 12:53:25;;;;;;;;;;;;;;;17.10;50.30;100937.22;1906381;74;20168;-56
2022/10/31 12:56:06;;;;;;;;;;;;;;;17.03;50.34;100932.38;1906703;74;20143;-56
2022/10/31 12:58:41;;;;;;;;;;;;;;;16.92;50.55;100939.22;1899543;74;20144;-57
2022/10/31 13:01:10;;;;;;;;;;;;;;;16.75;50.94;100936.73;1872590;76;20127;-55
2022/10/31 13:03:49;;;;;;;;;;;;;;;16.56;51.17;100940.97;1871950;76;20124;-57